Aérodrome :
LOGIN :

S'inscrire | Disclaimer

   EN    FR    IT 

 










Légende :    VFR   VFR Marginal   IFR   IFR Intensif   IFR Très Intensif
Visi : 
Plafond : 
>= 8 km
>= 3000ft
5 à 8 km
1000 à 3000 ft
1500m à 5 km
500 à 1000 ft
800 à 1500m
200 à 500 ft
< 800m
< 200 ft
Symboles :   Orages  Brouillard  Fortes neiges  Fortes précipitations  Vent > 20 kt
SIGMETs :   Divers  Orages  Givrage  Turbulence  Onde Orograph.  Cendres Volcan.







- Altitude de l'aérodrome : 1345 ft
- Code IATA : FRZ


ETHF - Fritzlar

DERNIER METAR :
  • 230920Z VRB03KT 9999 SCT021 10/04 Q1017 BLU+BLU+ TEMPO WHT

METARs EXPIRÉS :
  • 230820Z VRB02KT 9999 FEW015 SCT023 08/04 Q1016 BLU+BLU+ TEMPO WHT
  • 230800Z VRB03KT 9999 FEW014 SCT023 08/04 Q1016 BLU+BLU+ TEMPO WHT
  • 230720Z 00000KT 9999 FEW008 BKN022 07/04 Q1016 WHT BLU TEMPO WHT

TAF COR TAF ETHF
Valide du 23 à 09h jusqu'au 23 à 18h UTC


230835Z 2309/2318 12005KT 9999 NSW SCT020 BKN200
TEMPO 2309/2312 12003KT 9999 NSW BKN020
Pas de NOTAMs connus pour ce terrain.



MET'MAP, la Météo Aéronautique d'un coup d'oeil ! - Copyright ORBIFLY Décembre 2007 - Disclaimer

ORBIFLY MET'MAP TEAM :

Programmation & Développement : Alexandra Zaïnal
Conception & Développement : Baudouin d'Aumeries
Co-Programmation & Développement : Marc-Olivier Méhu
Soutien technique & logistique : Manuel Goepfert

Contact : metmap@orbifly.com




SOURCES & CREDITS :

   NOAA